sensor_id;sensor_type;location;lat;lon;timestamp;temperature;humidity
26575;DHT22;67165;50.256;10.978;2023-04-03T00:00:04;2.60;98.00
26575;DHT22;67165;50.256;10.978;2023-04-03T00:02:30;2.70;98.00
26575;DHT22;67165;50.256;10.978;2023-04-03T00:04:55;2.70;98.00
26575;DHT22;67165;50.256;10.978;2023-04-03T00:07:21;2.70;98.00
26575;DHT22;67165;50.256;10.978;2023-04-03T00:09:47;2.80;98.00
26575;DHT22;67165;50.256;10.978;2023-04-03T00:12:13;2.90;98.00
26575;DHT22;67165;50.256;10.978;2023-04-03T00:14:38;2.90;98.00
26575;DHT22;67165;50.256;10.978;2023-04-03T00:17:04;2.90;98.00
26575;DHT22;67165;50.256;10.978;2023-04-03T00:19:30;3.00;98.00
26575;DHT22;67165;50.256;10.978;2023-04-03T00:21:56;3.00;98.00
26575;DHT22;67165;50.256;10.978;2023-04-03T00:24:21;3.00;98.00
26575;DHT22;67165;50.256;10.978;2023-04-03T00:26:47;3.00;98.00
26575;DHT22;67165;50.256;10.978;2023-04-03T00:29:13;3.00;98.00
26575;DHT22;67165;50.256;10.978;2023-04-03T00:31:38;3.10;98.00
26575;DHT22;67165;50.256;10.978;2023-04-03T00:34:04;3.20;98.00
26575;DHT22;67165;50.256;10.978;2023-04-03T00:36:30;3.20;98.00
26575;DHT22;67165;50.256;10.978;2023-04-03T00:38:55;3.10;98.00
26575;DHT22;67165;50.256;10.978;2023-04-03T00:41:21;3.20;98.00
26575;DHT22;67165;50.256;10.978;2023-04-03T00:43:47;3.30;98.00
26575;DHT22;67165;50.256;10.978;2023-04-03T00:46:13;3.20;98.00
26575;DHT22;67165;50.256;10.978;2023-04-03T00:48:41;3.20;98.00
26575;DHT22;67165;50.256;10.978;2023-04-03T00:51:15;3.20;98.00
26575;DHT22;67165;50.256;10.978;2023-04-03T00:53:46;3.20;98.00
26575;DHT22;67165;50.256;10.978;2023-04-03T00:56:16;3.10;98.00
26575;DHT22;67165;50.256;10.978;2023-04-03T00:58:55;3.10;98.00
26575;DHT22;67165;50.256;10.978;2023-04-03T01:01:26;3.10;98.00
26575;DHT22;67165;50.256;10.978;2023-04-03T01:03:52;3.10;98.00
26575;DHT22;67165;50.256;10.978;2023-04-03T01:06:23;3.00;98.00
26575;DHT22;67165;50.256;10.978;2023-04-03T01:08:51;3.00;98.00
26575;DHT22;67165;50.256;10.978;2023-04-03T01:11:16;3.00;98.00
26575;DHT22;67165;50.256;10.978;2023-04-03T01:13:43;3.00;98.00
26575;DHT22;67165;50.256;10.978;2023-04-03T01:16:09;3.00;98.00
26575;DHT22;67165;50.256;10.978;2023-04-03T01:18:38;2.90;98.00
26575;DHT22;67165;50.256;10.978;2023-04-03T01:26:25;2.90;98.00
26575;DHT22;67165;50.256;10.978;2023-04-03T01:28:53;2.90;98.00
26575;DHT22;67165;50.256;10.978;2023-04-03T01:33:45;2.80;98.00
26575;DHT22;67165;50.256;10.978;2023-04-03T01:36:24;2.80;98.00
26575;DHT22;67165;50.256;10.978;2023-04-03T01:38:51;2.80;98.00
26575;DHT22;67165;50.256;10.978;2023-04-03T01:41:17;2.70;98.00
26575;DHT22;67165;50.256;10.978;2023-04-03T01:43:43;2.60;98.00
26575;DHT22;67165;50.256;10.978;2023-04-03T01:46:09;2.60;98.00
26575;DHT22;67165;50.256;10.978;2023-04-03T01:48:35;2.50;98.00
26575;DHT22;67165;50.256;10.978;2023-04-03T01:51:01;2.40;98.00
26575;DHT22;67165;50.256;10.978;2023-04-03T01:53:26;2.40;98.00
26575;DHT22;67165;50.256;10.978;2023-04-03T01:55:52;2.40;98.00
26575;DHT22;67165;50.256;10.978;2023-04-03T01:58:18;2.40;98.00
26575;DHT22;67165;50.256;10.978;2023-04-03T02:00:43;2.40;98.00
26575;DHT22;67165;50.256;10.978;2023-04-03T02:03:09;2.40;98.00
26575;DHT22;67165;50.256;10.978;2023-04-03T02:05:35;2.30;98.00
26575;DHT22;67165;50.256;10.978;2023-04-03T02:08:01;2.30;98.00
26575;DHT22;67165;50.256;10.978;2023-04-03T02:10:27;2.30;98.00
26575;DHT22;67165;50.256;10.978;2023-04-03T02:12:52;2.30;98.00
26575;DHT22;67165;50.256;10.978;2023-04-03T02:15:18;2.20;98.00
26575;DHT22;67165;50.256;10.978;2023-04-03T02:17:44;2.20;98.00
26575;DHT22;67165;50.256;10.978;2023-04-03T02:20:10;2.20;98.00
26575;DHT22;67165;50.256;10.978;2023-04-03T02:22:35;2.20;98.00
26575;DHT22;67165;50.256;10.978;2023-04-03T02:25:01;2.10;98.00
26575;DHT22;67165;50.256;10.978;2023-04-03T02:27:27;2.10;98.00
26575;DHT22;67165;50.256;10.978;2023-04-03T02:29:53;2.20;98.00
26575;DHT22;67165;50.256;10.978;2023-04-03T02:32:18;2.10;98.00
26575;DHT22;67165;50.256;10.978;2023-04-03T02:34:44;2.00;98.00
26575;DHT22;67165;50.256;10.978;2023-04-03T02:37:10;1.90;98.00
26575;DHT22;67165;50.256;10.978;2023-04-03T02:39:36;1.90;98.00
26575;DHT22;67165;50.256;10.978;2023-04-03T02:42:01;1.90;98.00
26575;DHT22;67165;50.256;10.978;2023-04-03T02:44:27;2.00;98.00
26575;DHT22;67165;50.256;10.978;2023-04-03T02:46:53;2.00;98.00
26575;DHT22;67165;50.256;10.978;2023-04-03T02:49:18;1.90;98.00
26575;DHT22;67165;50.256;10.978;2023-04-03T02:51:44;1.90;98.00
26575;DHT22;67165;50.256;10.978;2023-04-03T02:54:11;1.80;98.00
26575;DHT22;67165;50.256;10.978;2023-04-03T02:56:36;1.80;98.00
26575;DHT22;67165;50.256;10.978;2023-04-03T02:59:02;1.80;98.00
26575;DHT22;67165;50.256;10.978;2023-04-03T03:01:28;1.90;98.00
26575;DHT22;67165;50.256;10.978;2023-04-03T03:03:57;1.90;98.00
26575;DHT22;67165;50.256;10.978;2023-04-03T03:06:23;2.00;98.00
26575;DHT22;67165;50.256;10.978;2023-04-03T03:08:49;1.90;98.00
26575;DHT22;67165;50.256;10.978;2023-04-03T03:11:14;1.90;98.00
26575;DHT22;67165;50.256;10.978;2023-04-03T03:13:40;1.80;98.00
26575;DHT22;67165;50.256;10.978;2023-04-03T03:16:06;1.70;98.00
26575;DHT22;67165;50.256;10.978;2023-04-03T03:18:33;1.70;98.00
26575;DHT22;67165;50.256;10.978;2023-04-03T03:21:00;1.70;98.00
26575;DHT22;67165;50.256;10.978;2023-04-03T03:23:28;1.70;98.00
26575;DHT22;67165;50.256;10.978;2023-04-03T03:26:02;1.70;98.00
26575;DHT22;67165;50.256;10.978;2023-04-03T03:28:28;1.70;98.00
26575;DHT22;67165;50.256;10.978;2023-04-03T03:30:54;1.70;98.00
26575;DHT22;67165;50.256;10.978;2023-04-03T03:33:20;1.70;98.00
26575;DHT22;67165;50.256;10.978;2023-04-03T03:35:45;1.60;98.00
26575;DHT22;67165;50.256;10.978;2023-04-03T03:38:11;1.60;98.00
26575;DHT22;67165;50.256;10.978;2023-04-03T03:40:37;1.60;98.00
26575;DHT22;67165;50.256;10.978;2023-04-03T03:43:03;1.60;98.00
26575;DHT22;67165;50.256;10.978;2023-04-03T03:45:28;1.70;98.00
26575;DHT22;67165;50.256;10.978;2023-04-03T03:47:54;1.60;98.00
26575;DHT22;67165;50.256;10.978;2023-04-03T03:50:20;1.60;98.00
26575;DHT22;67165;50.256;10.978;2023-04-03T03:52:45;1.60;98.00
26575;DHT22;67165;50.256;10.978;2023-04-03T03:55:12;1.70;98.00
26575;DHT22;67165;50.256;10.978;2023-04-03T03:57:37;1.70;98.00
26575;DHT22;67165;50.256;10.978;2023-04-03T04:00:03;1.70;98.00
26575;DHT22;67165;50.256;10.978;2023-04-03T04:02:29;1.60;98.00
26575;DHT22;67165;50.256;10.978;2023-04-03T04:04:55;1.50;98.00
26575;DHT22;67165;50.256;10.978;2023-04-03T04:07:21;1.40;98.00
26575;DHT22;67165;50.256;10.978;2023-04-03T04:09:47;1.50;98.00
26575;DHT22;67165;50.256;10.978;2023-04-03T04:12:12;1.40;98.00
26575;DHT22;67165;50.256;10.978;2023-04-03T04:14:38;1.30;98.00
26575;DHT22;67165;50.256;10.978;2023-04-03T04:17:03;1.30;98.00
26575;DHT22;67165;50.256;10.978;2023-04-03T04:19:29;1.20;98.00
26575;DHT22;67165;50.256;10.978;2023-04-03T04:21:55;1.10;98.00
26575;DHT22;67165;50.256;10.978;2023-04-03T04:24:20;1.10;98.00
26575;DHT22;67165;50.256;10.978;2023-04-03T04:26:48;1.00;98.00
26575;DHT22;67165;50.256;10.978;2023-04-03T04:29:14;0.90;98.00
26575;DHT22;67165;50.256;10.978;2023-04-03T04:31:39;0.90;98.00
26575;DHT22;67165;50.256;10.978;2023-04-03T04:34:05;0.90;98.00
26575;DHT22;67165;50.256;10.978;2023-04-03T04:36:31;0.90;98.00
26575;DHT22;67165;50.256;10.978;2023-04-03T04:38:56;0.90;98.00
26575;DHT22;67165;50.256;10.978;2023-04-03T04:41:23;0.90;98.00
26575;DHT22;67165;50.256;10.978;2023-04-03T04:43:50;0.80;98.00
26575;DHT22;67165;50.256;10.978;2023-04-03T04:46:16;0.70;98.00
26575;DHT22;67165;50.256;10.978;2023-04-03T04:48:42;0.80;98.00
26575;DHT22;67165;50.256;10.978;2023-04-03T04:51:08;0.80;98.00
26575;DHT22;67165;50.256;10.978;2023-04-03T04:53:34;0.80;98.00
26575;DHT22;67165;50.256;10.978;2023-04-03T04:56:00;0.80;98.00
26575;DHT22;67165;50.256;10.978;2023-04-03T04:58:25;0.80;98.00
26575;DHT22;67165;50.256;10.978;2023-04-03T05:00:59;0.80;98.00
26575;DHT22;67165;50.256;10.978;2023-04-03T05:03:25;0.80;98.00
26575;DHT22;67165;50.256;10.978;2023-04-03T05:05:50;0.80;98.00
26575;DHT22;67165;50.256;10.978;2023-04-03T05:08:16;0.90;98.00
26575;DHT22;67165;50.256;10.978;2023-04-03T05:10:42;0.80;98.00
26575;DHT22;67165;50.256;10.978;2023-04-03T05:13:08;0.80;98.00
26575;DHT22;67165;50.256;10.978;2023-04-03T05:15:33;0.80;98.00
26575;DHT22;67165;50.256;10.978;2023-04-03T05:17:59;0.90;98.00
26575;DHT22;67165;50.256;10.978;2023-04-03T05:20:25;0.90;98.00
26575;DHT22;67165;50.256;10.978;2023-04-03T05:22:50;0.90;98.00
26575;DHT22;67165;50.256;10.978;2023-04-03T05:25:16;1.00;98.00
26575;DHT22;67165;50.256;10.978;2023-04-03T05:27:42;0.90;98.00
26575;DHT22;67165;50.256;10.978;2023-04-03T05:30:08;1.00;98.00
26575;DHT22;67165;50.256;10.978;2023-04-03T05:32:34;1.00;98.00
26575;DHT22;67165;50.256;10.978;2023-04-03T05:34:59;1.10;98.00
26575;DHT22;67165;50.256;10.978;2023-04-03T05:37:25;1.00;98.00
26575;DHT22;67165;50.256;10.978;2023-04-03T05:39:51;1.10;98.00
26575;DHT22;67165;50.256;10.978;2023-04-03T05:42:17;1.10;98.00
26575;DHT22;67165;50.256;10.978;2023-04-03T05:44:42;1.10;98.00
26575;DHT22;67165;50.256;10.978;2023-04-03T05:47:08;1.10;98.00
26575;DHT22;67165;50.256;10.978;2023-04-03T05:49:34;1.20;98.00
26575;DHT22;67165;50.256;10.978;2023-04-03T05:52:01;1.30;98.00
26575;DHT22;67165;50.256;10.978;2023-04-03T05:54:28;1.40;98.00
26575;DHT22;67165;50.256;10.978;2023-04-03T05:56:54;1.40;98.00
26575;DHT22;67165;50.256;10.978;2023-04-03T05:59:20;1.30;98.00
26575;DHT22;67165;50.256;10.978;2023-04-03T06:01:47;1.40;98.00
26575;DHT22;67165;50.256;10.978;2023-04-03T06:04:13;1.50;98.00
26575;DHT22;67165;50.256;10.978;2023-04-03T06:06:49;1.40;98.00
26575;DHT22;67165;50.256;10.978;2023-04-03T06:09:17;1.50;98.00
26575;DHT22;67165;50.256;10.978;2023-04-03T06:11:44;1.50;98.00
26575;DHT22;67165;50.256;10.978;2023-04-03T06:14:10;1.50;98.00
26575;DHT22;67165;50.256;10.978;2023-04-03T06:16:36;1.50;98.00
26575;DHT22;67165;50.256;10.978;2023-04-03T06:19:03;1.50;98.00
26575;DHT22;67165;50.256;10.978;2023-04-03T06:21:30;1.50;98.00
26575;DHT22;67165;50.256;10.978;2023-04-03T06:23:55;1.60;98.00
26575;DHT22;67165;50.256;10.978;2023-04-03T06:26:21;1.70;98.00
26575;DHT22;67165;50.256;10.978;2023-04-03T06:28:47;1.60;98.00
26575;DHT22;67165;50.256;10.978;2023-04-03T06:31:13;1.60;98.00
26575;DHT22;67165;50.256;10.978;2023-04-03T06:33:38;1.60;98.00
26575;DHT22;67165;50.256;10.978;2023-04-03T06:36:05;1.60;98.00
26575;DHT22;67165;50.256;10.978;2023-04-03T06:38:33;1.60;98.00
26575;DHT22;67165;50.256;10.978;2023-04-03T06:40:59;1.50;98.00
26575;DHT22;67165;50.256;10.978;2023-04-03T06:43:25;1.70;98.00
26575;DHT22;67165;50.256;10.978;2023-04-03T06:45:51;1.80;98.00
26575;DHT22;67165;50.256;10.978;2023-04-03T06:48:17;2.00;98.00
26575;DHT22;67165;50.256;10.978;2023-04-03T06:50:43;2.00;98.00
26575;DHT22;67165;50.256;10.978;2023-04-03T06:53:09;2.20;98.00
26575;DHT22;67165;50.256;10.978;2023-04-03T06:55:35;2.30;98.00
26575;DHT22;67165;50.256;10.978;2023-04-03T06:58:01;2.30;98.00
26575;DHT22;67165;50.256;10.978;2023-04-03T07:00:27;2.30;98.00
26575;DHT22;67165;50.256;10.978;2023-04-03T07:02:53;2.20;98.00
26575;DHT22;67165;50.256;10.978;2023-04-03T07:05:18;2.20;98.00
26575;DHT22;67165;50.256;10.978;2023-04-03T07:07:44;2.20;98.00
26575;DHT22;67165;50.256;10.978;2023-04-03T07:10:10;2.20;98.00
26575;DHT22;67165;50.256;10.978;2023-04-03T07:12:37;2.30;98.00
26575;DHT22;67165;50.256;10.978;2023-04-03T07:15:04;2.20;98.00
26575;DHT22;67165;50.256;10.978;2023-04-03T07:17:30;2.20;98.00
26575;DHT22;67165;50.256;10.978;2023-04-03T07:19:56;2.30;98.00
26575;DHT22;67165;50.256;10.978;2023-04-03T07:22:22;2.30;98.00
26575;DHT22;67165;50.256;10.978;2023-04-03T07:24:48;2.20;98.00
26575;DHT22;67165;50.256;10.978;2023-04-03T07:27:14;2.30;98.00
26575;DHT22;67165;50.256;10.978;2023-04-03T07:29:40;2.30;98.00
26575;DHT22;67165;50.256;10.978;2023-04-03T07:32:06;2.40;98.00
26575;DHT22;67165;50.256;10.978;2023-04-03T07:34:32;2.30;98.00
26575;DHT22;67165;50.256;10.978;2023-04-03T07:36:58;2.50;98.00
26575;DHT22;67165;50.256;10.978;2023-04-03T07:39:25;2.40;98.00
26575;DHT22;67165;50.256;10.978;2023-04-03T07:41:50;2.70;98.00
26575;DHT22;67165;50.256;10.978;2023-04-03T07:44:17;2.70;98.00
26575;DHT22;67165;50.256;10.978;2023-04-03T07:46:43;2.70;98.00
26575;DHT22;67165;50.256;10.978;2023-04-03T07:49:08;2.70;98.00
26575;DHT22;67165;50.256;10.978;2023-04-03T07:51:34;2.70;98.00
26575;DHT22;67165;50.256;10.978;2023-04-03T07:54:00;2.70;98.00
26575;DHT22;67165;50.256;10.978;2023-04-03T07:56:26;2.90;98.00
26575;DHT22;67165;50.256;10.978;2023-04-03T07:58:51;3.00;98.00
26575;DHT22;67165;50.256;10.978;2023-04-03T08:01:17;3.00;98.00
26575;DHT22;67165;50.256;10.978;2023-04-03T08:03:43;3.00;98.00
26575;DHT22;67165;50.256;10.978;2023-04-03T08:06:09;3.10;98.00
26575;DHT22;67165;50.256;10.978;2023-04-03T08:08:36;3.30;98.00
26575;DHT22;67165;50.256;10.978;2023-04-03T08:11:02;3.50;98.00
26575;DHT22;67165;50.256;10.978;2023-04-03T08:13:28;3.60;98.00
26575;DHT22;67165;50.256;10.978;2023-04-03T08:15:54;3.50;98.00
26575;DHT22;67165;50.256;10.978;2023-04-03T08:18:23;3.20;98.00
26575;DHT22;67165;50.256;10.978;2023-04-03T08:20:50;3.30;98.00
26575;DHT22;67165;50.256;10.978;2023-04-03T08:23:17;3.10;98.00
26575;DHT22;67165;50.256;10.978;2023-04-03T08:25:43;3.10;98.00
26575;DHT22;67165;50.256;10.978;2023-04-03T08:28:10;3.20;98.00
26575;DHT22;67165;50.256;10.978;2023-04-03T08:30:39;3.70;98.00
26575;DHT22;67165;50.256;10.978;2023-04-03T08:33:05;4.00;98.00
26575;DHT22;67165;50.256;10.978;2023-04-03T08:35:31;4.20;98.00
26575;DHT22;67165;50.256;10.978;2023-04-03T08:37:57;4.50;98.00
26575;DHT22;67165;50.256;10.978;2023-04-03T08:40:23;4.50;98.00
26575;DHT22;67165;50.256;10.978;2023-04-03T08:45:19;4.50;98.00
26575;DHT22;67165;50.256;10.978;2023-04-03T08:48:08;4.30;98.00
26575;DHT22;67165;50.256;10.978;2023-04-03T08:50:40;3.90;98.00
26575;DHT22;67165;50.256;10.978;2023-04-03T08:53:14;4.10;98.00
26575;DHT22;67165;50.256;10.978;2023-04-03T08:55:47;4.10;98.00
26575;DHT22;67165;50.256;10.978;2023-04-03T08:58:22;3.90;98.00
26575;DHT22;67165;50.256;10.978;2023-04-03T09:03:39;3.70;98.00
26575;DHT22;67165;50.256;10.978;2023-04-03T09:06:27;4.10;98.00
26575;DHT22;67165;50.256;10.978;2023-04-03T09:09:13;4.30;98.00
26575;DHT22;67165;50.256;10.978;2023-04-03T09:17:16;4.60;98.00
26575;DHT22;67165;50.256;10.978;2023-04-03T09:22:43;4.40;98.00
26575;DHT22;67165;50.256;10.978;2023-04-03T09:25:17;4.10;98.00
26575;DHT22;67165;50.256;10.978;2023-04-03T09:27:44;3.70;98.00
26575;DHT22;67165;50.256;10.978;2023-04-03T09:30:19;3.50;98.00
26575;DHT22;67165;50.256;10.978;2023-04-03T09:32:47;3.50;98.00
26575;DHT22;67165;50.256;10.978;2023-04-03T09:35:32;3.40;98.00
26575;DHT22;67165;50.256;10.978;2023-04-03T09:38:17;3.10;98.00
26575;DHT22;67165;50.256;10.978;2023-04-03T09:45:46;2.90;98.00
26575;DHT22;67165;50.256;10.978;2023-04-03T09:55:52;3.40;98.00
26575;DHT22;67165;50.256;10.978;2023-04-03T09:58:32;3.30;98.00
26575;DHT22;67165;50.256;10.978;2023-04-03T10:01:00;3.70;98.00
26575;DHT22;67165;50.256;10.978;2023-04-03T10:03:35;3.90;98.00
26575;DHT22;67165;50.256;10.978;2023-04-03T10:06:03;4.10;98.00
26575;DHT22;67165;50.256;10.978;2023-04-03T10:08:31;4.20;98.00
26575;DHT22;67165;50.256;10.978;2023-04-03T10:13:32;4.50;98.00
26575;DHT22;67165;50.256;10.978;2023-04-03T10:16:08;4.60;98.00
26575;DHT22;67165;50.256;10.978;2023-04-03T10:18:42;4.60;98.00
26575;DHT22;67165;50.256;10.978;2023-04-03T10:21:39;4.50;98.00
26575;DHT22;67165;50.256;10.978;2023-04-03T10:24:09;4.30;98.00
26575;DHT22;67165;50.256;10.978;2023-04-03T10:34:29;4.10;98.00
26575;DHT22;67165;50.256;10.978;2023-04-03T10:37:27;4.30;98.00
26575;DHT22;67165;50.256;10.978;2023-04-03T10:40:05;4.50;98.00
26575;DHT22;67165;50.256;10.978;2023-04-03T10:42:53;4.60;98.00
26575;DHT22;67165;50.256;10.978;2023-04-03T10:45:26;4.50;98.00
26575;DHT22;67165;50.256;10.978;2023-04-03T10:50:38;4.30;98.00
26575;DHT22;67165;50.256;10.978;2023-04-03T10:53:14;4.20;98.00
26575;DHT22;67165;50.256;10.978;2023-04-03T10:58:43;4.40;98.00
26575;DHT22;67165;50.256;10.978;2023-04-03T11:01:13;4.40;98.00
26575;DHT22;67165;50.256;10.978;2023-04-03T11:03:43;4.40;98.00
26575;DHT22;67165;50.256;10.978;2023-04-03T11:06:13;4.40;98.00
26575;DHT22;67165;50.256;10.978;2023-04-03T11:08:53;4.40;98.00
26575;DHT22;67165;50.256;10.978;2023-04-03T11:11:31;4.60;98.00
26575;DHT22;67165;50.256;10.978;2023-04-03T11:14:26;4.50;98.00
26575;DHT22;67165;50.256;10.978;2023-04-03T11:27:45;4.50;98.00
26575;DHT22;67165;50.256;10.978;2023-04-03T11:33:21;4.50;98.00
26575;DHT22;67165;50.256;10.978;2023-04-03T11:35:51;4.50;98.00
26575;DHT22;67165;50.256;10.978;2023-04-03T11:38:38;4.40;98.00
26575;DHT22;67165;50.256;10.978;2023-04-03T11:41:08;4.50;98.00
26575;DHT22;67165;50.256;10.978;2023-04-03T11:43:54;4.60;98.00
26575;DHT22;67165;50.256;10.978;2023-04-03T11:46:21;4.60;98.00
26575;DHT22;67165;50.256;10.978;2023-04-03T11:48:49;4.80;98.00
26575;DHT22;67165;50.256;10.978;2023-04-03T11:53:46;5.10;98.00
26575;DHT22;67165;50.256;10.978;2023-04-03T12:01:47;5.00;98.00
26575;DHT22;67165;50.256;10.978;2023-04-03T12:04:14;5.00;98.00
26575;DHT22;67165;50.256;10.978;2023-04-03T12:11:53;5.10;96.80
26575;DHT22;67165;50.256;10.978;2023-04-03T12:14:23;5.10;97.40
26575;DHT22;67165;50.256;10.978;2023-04-03T12:16:53;5.10;97.20
26575;DHT22;67165;50.256;10.978;2023-04-03T12:19:36;5.10;97.10
26575;DHT22;67165;50.256;10.978;2023-04-03T12:24:30;5.40;98.00
26575;DHT22;67165;50.256;10.978;2023-04-03T12:35:09;5.40;96.90
26575;DHT22;67165;50.256;10.978;2023-04-03T12:46:09;5.60;94.50
26575;DHT22;67165;50.256;10.978;2023-04-03T12:48:55;5.60;93.50
26575;DHT22;67165;50.256;10.978;2023-04-03T12:51:22;5.60;92.40
26575;DHT22;67165;50.256;10.978;2023-04-03T12:53:58;5.60;93.60
26575;DHT22;67165;50.256;10.978;2023-04-03T12:56:30;5.80;94.70
26575;DHT22;67165;50.256;10.978;2023-04-03T13:01:43;5.70;95.40
26575;DHT22;67165;50.256;10.978;2023-04-03T13:04:11;5.60;97.20
26575;DHT22;67165;50.256;10.978;2023-04-03T13:06:43;5.60;98.00
26575;DHT22;67165;50.256;10.978;2023-04-03T13:09:23;5.50;96.60
26575;DHT22;67165;50.256;10.978;2023-04-03T13:11:58;5.50;96.90
26575;DHT22;67165;50.256;10.978;2023-04-03T13:14:25;5.60;96.70
26575;DHT22;67165;50.256;10.978;2023-04-03T13:19:27;5.70;95.00
26575;DHT22;67165;50.256;10.978;2023-04-03T13:22:06;5.60;94.90
26575;DHT22;67165;50.256;10.978;2023-04-03T13:24:36;5.60;94.70
26575;DHT22;67165;50.256;10.978;2023-04-03T13:27:03;5.50;94.00
26575;DHT22;67165;50.256;10.978;2023-04-03T13:29:32;5.50;94.00
26575;DHT22;67165;50.256;10.978;2023-04-03T13:31:59;5.70;96.10
26575;DHT22;67165;50.256;10.978;2023-04-03T13:34:28;5.70;94.40
26575;DHT22;67165;50.256;10.978;2023-04-03T13:36:58;5.70;95.50
26575;DHT22;67165;50.256;10.978;2023-04-03T13:39:26;5.90;94.80
26575;DHT22;67165;50.256;10.978;2023-04-03T13:41:58;6.20;96.30
26575;DHT22;67165;50.256;10.978;2023-04-03T13:44:34;6.40;95.90
26575;DHT22;67165;50.256;10.978;2023-04-03T13:49:42;6.10;96.80
26575;DHT22;67165;50.256;10.978;2023-04-03T13:52:24;6.00;97.10
26575;DHT22;67165;50.256;10.978;2023-04-03T13:54:57;6.00;96.30
26575;DHT22;67165;50.256;10.978;2023-04-03T13:57:23;6.00;94.30
26575;DHT22;67165;50.256;10.978;2023-04-03T13:59:49;6.10;95.40
26575;DHT22;67165;50.256;10.978;2023-04-03T14:02:19;6.20;94.80
26575;DHT22;67165;50.256;10.978;2023-04-03T14:07:15;6.40;94.40
26575;DHT22;67165;50.256;10.978;2023-04-03T14:09:42;6.20;94.70
26575;DHT22;67165;50.256;10.978;2023-04-03T14:12:16;6.10;94.70
26575;DHT22;67165;50.256;10.978;2023-04-03T14:14:43;5.70;93.80
26575;DHT22;67165;50.256;10.978;2023-04-03T14:17:22;5.60;95.00
26575;DHT22;67165;50.256;10.978;2023-04-03T14:19:49;5.60;94.20
26575;DHT22;67165;50.256;10.978;2023-04-03T14:22:21;5.80;94.10
26575;DHT22;67165;50.256;10.978;2023-04-03T14:24:48;6.00;95.70
26575;DHT22;67165;50.256;10.978;2023-04-03T14:27:27;6.20;94.70
26575;DHT22;67165;50.256;10.978;2023-04-03T14:29:56;6.20;93.30
26575;DHT22;67165;50.256;10.978;2023-04-03T14:32:23;6.00;93.50
26575;DHT22;67165;50.256;10.978;2023-04-03T14:34:50;5.80;93.90
26575;DHT22;67165;50.256;10.978;2023-04-03T14:37:22;5.60;94.30
26575;DHT22;67165;50.256;10.978;2023-04-03T14:39:48;5.60;95.50
26575;DHT22;67165;50.256;10.978;2023-04-03T14:42:28;5.70;96.30
26575;DHT22;67165;50.256;10.978;2023-04-03T14:44:54;5.80;95.70
26575;DHT22;67165;50.256;10.978;2023-04-03T14:47:23;6.00;96.00
26575;DHT22;67165;50.256;10.978;2023-04-03T14:49:50;5.90;94.00
26575;DHT22;67165;50.256;10.978;2023-04-03T14:52:20;5.80;94.70
26575;DHT22;67165;50.256;10.978;2023-04-03T14:54:47;5.70;95.00
26575;DHT22;67165;50.256;10.978;2023-04-03T14:57:15;5.70;95.70
26575;DHT22;67165;50.256;10.978;2023-04-03T14:59:42;5.60;96.00
26575;DHT22;67165;50.256;10.978;2023-04-03T15:02:29;5.60;94.60
26575;DHT22;67165;50.256;10.978;2023-04-03T15:04:55;5.30;94.40
26575;DHT22;67165;50.256;10.978;2023-04-03T15:07:23;5.30;96.20
26575;DHT22;67165;50.256;10.978;2023-04-03T15:09:49;5.30;95.90
26575;DHT22;67165;50.256;10.978;2023-04-03T15:12:15;5.30;96.50
26575;DHT22;67165;50.256;10.978;2023-04-03T15:14:41;5.60;96.70
26575;DHT22;67165;50.256;10.978;2023-04-03T15:17:14;5.70;95.60
26575;DHT22;67165;50.256;10.978;2023-04-03T15:19:41;5.70;96.50
26575;DHT22;67165;50.256;10.978;2023-04-03T15:22:08;5.50;95.30
26575;DHT22;67165;50.256;10.978;2023-04-03T15:24:34;5.30;95.90
26575;DHT22;67165;50.256;10.978;2023-04-03T15:27:00;5.20;96.30
26575;DHT22;67165;50.256;10.978;2023-04-03T15:29:27;5.00;96.70
26575;DHT22;67165;50.256;10.978;2023-04-03T15:31:52;5.00;96.40
26575;DHT22;67165;50.256;10.978;2023-04-03T15:34:18;5.00;95.80
26575;DHT22;67165;50.256;10.978;2023-04-03T15:36:44;4.90;96.10
26575;DHT22;67165;50.256;10.978;2023-04-03T15:39:10;5.10;97.00
26575;DHT22;67165;50.256;10.978;2023-04-03T15:41:35;5.00;95.10
26575;DHT22;67165;50.256;10.978;2023-04-03T15:44:01;5.10;95.70
26575;DHT22;67165;50.256;10.978;2023-04-03T15:46:27;5.10;95.90
26575;DHT22;67165;50.256;10.978;2023-04-03T15:48:52;5.20;96.20
26575;DHT22;67165;50.256;10.978;2023-04-03T15:51:18;5.20;96.20
26575;DHT22;67165;50.256;10.978;2023-04-03T15:53:44;5.20;96.70
26575;DHT22;67165;50.256;10.978;2023-04-03T15:56:09;5.30;97.40
26575;DHT22;67165;50.256;10.978;2023-04-03T15:58:35;5.30;97.10
26575;DHT22;67165;50.256;10.978;2023-04-03T16:01:01;5.00;96.80
26575;DHT22;67165;50.256;10.978;2023-04-03T16:03:27;5.10;98.00
26575;DHT22;67165;50.256;10.978;2023-04-03T16:05:53;5.00;96.80
26575;DHT22;67165;50.256;10.978;2023-04-03T16:08:19;4.80;96.70
26575;DHT22;67165;50.256;10.978;2023-04-03T16:10:45;4.70;97.50
26575;DHT22;67165;50.256;10.978;2023-04-03T16:13:11;4.80;98.00
26575;DHT22;67165;50.256;10.978;2023-04-03T16:15:37;4.80;97.20
26575;DHT22;67165;50.256;10.978;2023-04-03T16:18:04;4.80;97.60
26575;DHT22;67165;50.256;10.978;2023-04-03T16:20:31;4.90;97.10
26575;DHT22;67165;50.256;10.978;2023-04-03T16:22:58;4.90;97.30
26575;DHT22;67165;50.256;10.978;2023-04-03T16:25:25;4.90;98.00
26575;DHT22;67165;50.256;10.978;2023-04-03T16:27:52;4.90;98.00
26575;DHT22;67165;50.256;10.978;2023-04-03T16:30:18;4.70;98.00
26575;DHT22;67165;50.256;10.978;2023-04-03T16:32:43;4.60;96.90
26575;DHT22;67165;50.256;10.978;2023-04-03T16:35:10;4.40;97.20
26575;DHT22;67165;50.256;10.978;2023-04-03T16:37:38;4.20;98.00
26575;DHT22;67165;50.256;10.978;2023-04-03T16:40:05;4.20;98.00
26575;DHT22;67165;50.256;10.978;2023-04-03T16:42:31;4.30;98.00
26575;DHT22;67165;50.256;10.978;2023-04-03T16:44:58;4.40;98.00
26575;DHT22;67165;50.256;10.978;2023-04-03T16:47:25;4.40;98.00
26575;DHT22;67165;50.256;10.978;2023-04-03T16:49:51;4.50;98.00
26575;DHT22;67165;50.256;10.978;2023-04-03T16:52:16;4.60;98.00
26575;DHT22;67165;50.256;10.978;2023-04-03T16:54:42;4.40;97.20
26575;DHT22;67165;50.256;10.978;2023-04-03T16:57:07;4.30;98.00
26575;DHT22;67165;50.256;10.978;2023-04-03T16:59:33;4.20;98.00
26575;DHT22;67165;50.256;10.978;2023-04-03T17:01:59;4.20;98.00
26575;DHT22;67165;50.256;10.978;2023-04-03T17:04:25;4.10;98.00
26575;DHT22;67165;50.256;10.978;2023-04-03T17:06:51;4.10;98.00
26575;DHT22;67165;50.256;10.978;2023-04-03T17:09:17;4.10;98.00
26575;DHT22;67165;50.256;10.978;2023-04-03T17:11:42;4.00;98.00
26575;DHT22;67165;50.256;10.978;2023-04-03T17:14:08;3.70;98.00
26575;DHT22;67165;50.256;10.978;2023-04-03T17:16:35;3.70;98.00
26575;DHT22;67165;50.256;10.978;2023-04-03T17:19:02;3.70;98.00
26575;DHT22;67165;50.256;10.978;2023-04-03T17:21:28;3.70;98.00